sensor_id;sensor_type;location;lat;lon;timestamp;temperature;humidity
4647;DHT22;2336;47.822;7.564;2023-04-01T00:01:26;7.40;99.90
4647;DHT22;2336;47.822;7.564;2023-04-01T00:03:54;7.40;99.90
4647;DHT22;2336;47.822;7.564;2023-04-01T00:06:22;7.40;99.90
4647;DHT22;2336;47.822;7.564;2023-04-01T00:08:48;7.40;99.90
4647;DHT22;2336;47.822;7.564;2023-04-01T00:11:16;7.40;99.90
4647;DHT22;2336;47.822;7.564;2023-04-01T00:13:43;7.40;99.90
4647;DHT22;2336;47.822;7.564;2023-04-01T00:16:10;7.40;99.90
4647;DHT22;2336;47.822;7.564;2023-04-01T00:18:37;7.40;99.90
4647;DHT22;2336;47.822;7.564;2023-04-01T00:21:06;7.50;99.90
4647;DHT22;2336;47.822;7.564;2023-04-01T00:23:33;7.50;99.90
4647;DHT22;2336;47.822;7.564;2023-04-01T00:26:01;7.50;99.90
4647;DHT22;2336;47.822;7.564;2023-04-01T00:28:28;7.50;99.90
4647;DHT22;2336;47.822;7.564;2023-04-01T00:30:55;7.50;99.90
4647;DHT22;2336;47.822;7.564;2023-04-01T00:33:22;7.50;99.90
4647;DHT22;2336;47.822;7.564;2023-04-01T00:35:49;7.50;99.90
4647;DHT22;2336;47.822;7.564;2023-04-01T00:38:17;7.50;99.90
4647;DHT22;2336;47.822;7.564;2023-04-01T00:40:45;7.50;99.90
4647;DHT22;2336;47.822;7.564;2023-04-01T00:43:13;7.50;99.90
4647;DHT22;2336;47.822;7.564;2023-04-01T00:45:42;7.60;99.90
4647;DHT22;2336;47.822;7.564;2023-04-01T00:48:13;7.60;99.90
4647;DHT22;2336;47.822;7.564;2023-04-01T00:50:44;7.70;99.90
4647;DHT22;2336;47.822;7.564;2023-04-01T00:53:12;7.80;99.90
4647;DHT22;2336;47.822;7.564;2023-04-01T00:55:43;7.90;99.90
4647;DHT22;2336;47.822;7.564;2023-04-01T00:58:15;7.90;99.90
4647;DHT22;2336;47.822;7.564;2023-04-01T01:00:43;8.00;99.90
4647;DHT22;2336;47.822;7.564;2023-04-01T01:03:11;8.10;99.90
4647;DHT22;2336;47.822;7.564;2023-04-01T01:05:57;8.20;99.90
4647;DHT22;2336;47.822;7.564;2023-04-01T01:08:36;8.30;99.90
4647;DHT22;2336;47.822;7.564;2023-04-01T01:11:10;8.30;99.90
4647;DHT22;2336;47.822;7.564;2023-04-01T01:13:43;8.30;99.90
4647;DHT22;2336;47.822;7.564;2023-04-01T01:16:14;8.30;99.90
4647;DHT22;2336;47.822;7.564;2023-04-01T01:18:49;8.30;99.90
4647;DHT22;2336;47.822;7.564;2023-04-01T01:21:41;8.30;99.90
4647;DHT22;2336;47.822;7.564;2023-04-01T01:24:30;8.40;99.90
4647;DHT22;2336;47.822;7.564;2023-04-01T01:27:06;8.40;99.90
4647;DHT22;2336;47.822;7.564;2023-04-01T01:29:58;8.50;99.90
4647;DHT22;2336;47.822;7.564;2023-04-01T01:35:31;8.60;99.90
4647;DHT22;2336;47.822;7.564;2023-04-01T01:38:02;8.60;99.90
4647;DHT22;2336;47.822;7.564;2023-04-01T01:40:32;8.60;99.90
4647;DHT22;2336;47.822;7.564;2023-04-01T01:43:03;8.60;99.90
4647;DHT22;2336;47.822;7.564;2023-04-01T01:45:32;8.60;99.90
4647;DHT22;2336;47.822;7.564;2023-04-01T01:48:00;8.60;99.90
4647;DHT22;2336;47.822;7.564;2023-04-01T01:50:30;8.60;99.90
4647;DHT22;2336;47.822;7.564;2023-04-01T01:53:02;8.60;99.90
4647;DHT22;2336;47.822;7.564;2023-04-01T01:55:31;8.60;99.90
4647;DHT22;2336;47.822;7.564;2023-04-01T01:58:00;8.60;99.90
4647;DHT22;2336;47.822;7.564;2023-04-01T02:00:29;8.60;99.90
4647;DHT22;2336;47.822;7.564;2023-04-01T02:02:57;8.60;99.90
4647;DHT22;2336;47.822;7.564;2023-04-01T02:05:26;8.60;99.90
4647;DHT22;2336;47.822;7.564;2023-04-01T02:08:01;8.50;99.90
4647;DHT22;2336;47.822;7.564;2023-04-01T02:10:31;8.40;99.90
4647;DHT22;2336;47.822;7.564;2023-04-01T02:13:02;8.40;99.90
4647;DHT22;2336;47.822;7.564;2023-04-01T02:15:33;8.40;99.90
4647;DHT22;2336;47.822;7.564;2023-04-01T02:18:04;8.40;99.90
4647;DHT22;2336;47.822;7.564;2023-04-01T02:20:31;8.40;99.90
4647;DHT22;2336;47.822;7.564;2023-04-01T02:23:00;8.40;99.90
4647;DHT22;2336;47.822;7.564;2023-04-01T02:25:29;8.40;99.90
4647;DHT22;2336;47.822;7.564;2023-04-01T02:27:57;8.30;99.90
4647;DHT22;2336;47.822;7.564;2023-04-01T02:30:26;8.30;99.90
4647;DHT22;2336;47.822;7.564;2023-04-01T02:32:55;8.30;99.90
4647;DHT22;2336;47.822;7.564;2023-04-01T02:35:22;8.30;99.90
4647;DHT22;2336;47.822;7.564;2023-04-01T02:37:50;8.40;99.90
4647;DHT22;2336;47.822;7.564;2023-04-01T02:40:19;8.40;99.90
4647;DHT22;2336;47.822;7.564;2023-04-01T02:42:46;8.30;99.90
4647;DHT22;2336;47.822;7.564;2023-04-01T02:45:13;8.40;99.90
4647;DHT22;2336;47.822;7.564;2023-04-01T02:47:40;8.40;99.90
4647;DHT22;2336;47.822;7.564;2023-04-01T02:50:08;8.40;99.90
4647;DHT22;2336;47.822;7.564;2023-04-01T02:52:35;8.50;99.90
4647;DHT22;2336;47.822;7.564;2023-04-01T02:55:03;8.50;99.90
4647;DHT22;2336;47.822;7.564;2023-04-01T02:57:31;8.60;99.90
4647;DHT22;2336;47.822;7.564;2023-04-01T02:59:58;8.60;99.90
4647;DHT22;2336;47.822;7.564;2023-04-01T03:02:25;8.70;99.90
4647;DHT22;2336;47.822;7.564;2023-04-01T03:04:52;8.70;99.90
4647;DHT22;2336;47.822;7.564;2023-04-01T03:07:19;8.70;99.90
4647;DHT22;2336;47.822;7.564;2023-04-01T03:09:45;8.70;99.90
4647;DHT22;2336;47.822;7.564;2023-04-01T03:12:12;8.70;99.90
4647;DHT22;2336;47.822;7.564;2023-04-01T03:14:40;8.70;99.90
4647;DHT22;2336;47.822;7.564;2023-04-01T03:17:07;8.60;99.90
4647;DHT22;2336;47.822;7.564;2023-04-01T03:19:33;8.60;99.90
4647;DHT22;2336;47.822;7.564;2023-04-01T03:22:00;8.50;99.90
4647;DHT22;2336;47.822;7.564;2023-04-01T03:24:27;8.50;99.90
4647;DHT22;2336;47.822;7.564;2023-04-01T03:26:53;8.40;99.90
4647;DHT22;2336;47.822;7.564;2023-04-01T03:29:20;8.50;99.90
4647;DHT22;2336;47.822;7.564;2023-04-01T03:31:48;8.40;99.90
4647;DHT22;2336;47.822;7.564;2023-04-01T03:34:15;8.40;99.90
4647;DHT22;2336;47.822;7.564;2023-04-01T03:36:42;8.30;99.90
4647;DHT22;2336;47.822;7.564;2023-04-01T03:39:08;8.40;99.90
4647;DHT22;2336;47.822;7.564;2023-04-01T03:41:36;8.40;99.90
4647;DHT22;2336;47.822;7.564;2023-04-01T03:44:03;8.30;99.90
4647;DHT22;2336;47.822;7.564;2023-04-01T03:46:30;8.20;99.90
4647;DHT22;2336;47.822;7.564;2023-04-01T03:48:58;8.20;99.90
4647;DHT22;2336;47.822;7.564;2023-04-01T03:51:25;8.10;99.90
4647;DHT22;2336;47.822;7.564;2023-04-01T03:53:51;8.10;99.90
4647;DHT22;2336;47.822;7.564;2023-04-01T03:56:18;8.00;99.90
4647;DHT22;2336;47.822;7.564;2023-04-01T03:58:45;8.00;99.90
4647;DHT22;2336;47.822;7.564;2023-04-01T04:01:17;8.00;99.90
4647;DHT22;2336;47.822;7.564;2023-04-01T04:03:45;7.90;99.90
4647;DHT22;2336;47.822;7.564;2023-04-01T04:06:14;8.00;99.90
4647;DHT22;2336;47.822;7.564;2023-04-01T04:08:40;8.00;99.90
4647;DHT22;2336;47.822;7.564;2023-04-01T04:11:07;8.00;99.90
4647;DHT22;2336;47.822;7.564;2023-04-01T04:13:34;8.00;99.90
4647;DHT22;2336;47.822;7.564;2023-04-01T04:16:02;8.00;99.90
4647;DHT22;2336;47.822;7.564;2023-04-01T04:18:29;8.00;99.90
4647;DHT22;2336;47.822;7.564;2023-04-01T04:20:56;8.00;99.90
4647;DHT22;2336;47.822;7.564;2023-04-01T04:23:24;8.00;99.90
4647;DHT22;2336;47.822;7.564;2023-04-01T04:25:55;8.00;99.90
4647;DHT22;2336;47.822;7.564;2023-04-01T04:28:22;8.00;99.90
4647;DHT22;2336;47.822;7.564;2023-04-01T04:30:49;8.10;99.90
4647;DHT22;2336;47.822;7.564;2023-04-01T04:33:16;8.00;99.90
4647;DHT22;2336;47.822;7.564;2023-04-01T04:35:42;8.00;99.90
4647;DHT22;2336;47.822;7.564;2023-04-01T04:38:09;8.10;99.90
4647;DHT22;2336;47.822;7.564;2023-04-01T04:40:38;8.10;99.90
4647;DHT22;2336;47.822;7.564;2023-04-01T04:43:05;8.00;99.90
4647;DHT22;2336;47.822;7.564;2023-04-01T04:45:32;8.10;99.90
4647;DHT22;2336;47.822;7.564;2023-04-01T04:47:58;8.10;99.90
4647;DHT22;2336;47.822;7.564;2023-04-01T04:50:25;8.10;99.90
4647;DHT22;2336;47.822;7.564;2023-04-01T04:52:52;8.10;99.90
4647;DHT22;2336;47.822;7.564;2023-04-01T04:55:20;8.10;99.90
4647;DHT22;2336;47.822;7.564;2023-04-01T04:57:48;8.20;99.90
4647;DHT22;2336;47.822;7.564;2023-04-01T05:00:15;8.20;99.90
4647;DHT22;2336;47.822;7.564;2023-04-01T05:02:42;8.20;99.90
4647;DHT22;2336;47.822;7.564;2023-04-01T05:05:09;8.20;99.90
4647;DHT22;2336;47.822;7.564;2023-04-01T05:07:36;8.20;99.90
4647;DHT22;2336;47.822;7.564;2023-04-01T05:10:03;8.20;99.90
4647;DHT22;2336;47.822;7.564;2023-04-01T05:12:30;8.30;99.90
4647;DHT22;2336;47.822;7.564;2023-04-01T05:15:03;8.30;99.90
4647;DHT22;2336;47.822;7.564;2023-04-01T05:17:29;8.30;99.90
4647;DHT22;2336;47.822;7.564;2023-04-01T05:19:56;8.30;99.90
4647;DHT22;2336;47.822;7.564;2023-04-01T05:22:23;8.40;99.90
4647;DHT22;2336;47.822;7.564;2023-04-01T05:24:50;8.40;99.90
4647;DHT22;2336;47.822;7.564;2023-04-01T05:27:16;8.40;99.90
4647;DHT22;2336;47.822;7.564;2023-04-01T05:29:43;8.40;99.90
4647;DHT22;2336;47.822;7.564;2023-04-01T05:32:11;8.40;99.90
4647;DHT22;2336;47.822;7.564;2023-04-01T05:34:38;8.40;99.90
4647;DHT22;2336;47.822;7.564;2023-04-01T05:37:05;8.40;99.90
4647;DHT22;2336;47.822;7.564;2023-04-01T05:39:36;8.50;99.90
4647;DHT22;2336;47.822;7.564;2023-04-01T05:42:03;8.50;99.90
4647;DHT22;2336;47.822;7.564;2023-04-01T05:44:30;8.50;99.90
4647;DHT22;2336;47.822;7.564;2023-04-01T05:46:56;8.60;99.90
4647;DHT22;2336;47.822;7.564;2023-04-01T05:49:24;8.60;99.90
4647;DHT22;2336;47.822;7.564;2023-04-01T05:51:51;8.70;99.90
4647;DHT22;2336;47.822;7.564;2023-04-01T05:54:19;8.60;99.90
4647;DHT22;2336;47.822;7.564;2023-04-01T05:56:46;8.70;99.90
4647;DHT22;2336;47.822;7.564;2023-04-01T05:59:12;8.60;99.90
4647;DHT22;2336;47.822;7.564;2023-04-01T06:01:39;8.60;99.90
4647;DHT22;2336;47.822;7.564;2023-04-01T06:04:06;8.70;99.90
4647;DHT22;2336;47.822;7.564;2023-04-01T06:06:38;8.60;99.90
4647;DHT22;2336;47.822;7.564;2023-04-01T06:09:12;8.70;99.90
4647;DHT22;2336;47.822;7.564;2023-04-01T06:11:48;8.70;99.90
4647;DHT22;2336;47.822;7.564;2023-04-01T06:14:27;8.80;99.90
4647;DHT22;2336;47.822;7.564;2023-04-01T06:17:08;8.80;99.90
4647;DHT22;2336;47.822;7.564;2023-04-01T06:19:47;8.80;99.90
4647;DHT22;2336;47.822;7.564;2023-04-01T06:22:51;8.90;99.90
4647;DHT22;2336;47.822;7.564;2023-04-01T06:25:36;8.80;99.90
4647;DHT22;2336;47.822;7.564;2023-04-01T06:28:41;8.80;99.90
4647;DHT22;2336;47.822;7.564;2023-04-01T06:31:16;8.80;99.90
4647;DHT22;2336;47.822;7.564;2023-04-01T06:33:56;8.80;99.90
4647;DHT22;2336;47.822;7.564;2023-04-01T06:36:42;8.80;99.90
4647;DHT22;2336;47.822;7.564;2023-04-01T06:39:31;8.90;99.90
4647;DHT22;2336;47.822;7.564;2023-04-01T06:42:19;8.90;99.90
4647;DHT22;2336;47.822;7.564;2023-04-01T06:44:59;8.80;99.90
4647;DHT22;2336;47.822;7.564;2023-04-01T06:47:38;8.90;99.90
4647;DHT22;2336;47.822;7.564;2023-04-01T06:50:18;8.80;99.90
4647;DHT22;2336;47.822;7.564;2023-04-01T06:52:51;8.80;99.90
4647;DHT22;2336;47.822;7.564;2023-04-01T06:55:28;8.90;99.90
4647;DHT22;2336;47.822;7.564;2023-04-01T06:57:57;8.90;99.90
4647;DHT22;2336;47.822;7.564;2023-04-01T07:00:29;8.90;99.90
4647;DHT22;2336;47.822;7.564;2023-04-01T07:03:02;8.90;99.90
4647;DHT22;2336;47.822;7.564;2023-04-01T07:05:32;9.00;99.90
4647;DHT22;2336;47.822;7.564;2023-04-01T07:08:02;9.00;99.90
4647;DHT22;2336;47.822;7.564;2023-04-01T07:10:35;9.10;99.90
4647;DHT22;2336;47.822;7.564;2023-04-01T07:13:14;9.00;99.90
4647;DHT22;2336;47.822;7.564;2023-04-01T07:15:43;9.00;99.90
4647;DHT22;2336;47.822;7.564;2023-04-01T07:18:15;9.10;99.90
4647;DHT22;2336;47.822;7.564;2023-04-01T07:20:43;9.10;99.90
4647;DHT22;2336;47.822;7.564;2023-04-01T07:23:16;9.10;99.90
4647;DHT22;2336;47.822;7.564;2023-04-01T07:25:52;9.20;99.90
4647;DHT22;2336;47.822;7.564;2023-04-01T07:28:21;9.20;99.90
4647;DHT22;2336;47.822;7.564;2023-04-01T07:30:52;9.30;99.90
4647;DHT22;2336;47.822;7.564;2023-04-01T07:33:29;9.30;99.90
4647;DHT22;2336;47.822;7.564;2023-04-01T07:36:05;9.40;99.90
4647;DHT22;2336;47.822;7.564;2023-04-01T07:38:38;9.30;99.90
4647;DHT22;2336;47.822;7.564;2023-04-01T07:41:13;9.40;99.90
4647;DHT22;2336;47.822;7.564;2023-04-01T07:43:56;9.40;99.90
4647;DHT22;2336;47.822;7.564;2023-04-01T07:46:46;9.40;99.90
4647;DHT22;2336;47.822;7.564;2023-04-01T07:49:21;9.40;99.90
4647;DHT22;2336;47.822;7.564;2023-04-01T07:51:55;9.40;99.90
4647;DHT22;2336;47.822;7.564;2023-04-01T07:54:29;9.50;99.90
4647;DHT22;2336;47.822;7.564;2023-04-01T07:57:05;9.40;99.90
4647;DHT22;2336;47.822;7.564;2023-04-01T07:59:39;9.40;99.90
4647;DHT22;2336;47.822;7.564;2023-04-01T08:02:10;9.40;99.90
4647;DHT22;2336;47.822;7.564;2023-04-01T08:04:48;9.50;99.90
4647;DHT22;2336;47.822;7.564;2023-04-01T08:07:18;9.60;99.90
4647;DHT22;2336;47.822;7.564;2023-04-01T08:09:52;9.60;99.90
4647;DHT22;2336;47.822;7.564;2023-04-01T08:12:31;9.60;99.90
4647;DHT22;2336;47.822;7.564;2023-04-01T08:15:10;9.70;99.90
4647;DHT22;2336;47.822;7.564;2023-04-01T08:17:45;9.60;99.90
4647;DHT22;2336;47.822;7.564;2023-04-01T08:20:27;9.60;99.90
4647;DHT22;2336;47.822;7.564;2023-04-01T08:22:59;9.60;99.90
4647;DHT22;2336;47.822;7.564;2023-04-01T08:25:28;9.70;99.90
4647;DHT22;2336;47.822;7.564;2023-04-01T08:28:01;9.70;99.90
4647;DHT22;2336;47.822;7.564;2023-04-01T08:30:38;9.70;99.90
4647;DHT22;2336;47.822;7.564;2023-04-01T08:33:12;9.70;99.90
4647;DHT22;2336;47.822;7.564;2023-04-01T08:35:44;9.80;99.90
4647;DHT22;2336;47.822;7.564;2023-04-01T08:38:15;9.80;99.90
4647;DHT22;2336;47.822;7.564;2023-04-01T08:40:58;9.80;99.90
4647;DHT22;2336;47.822;7.564;2023-04-01T08:46:40;9.90;99.90
4647;DHT22;2336;47.822;7.564;2023-04-01T08:49:22;9.90;99.90
4647;DHT22;2336;47.822;7.564;2023-04-01T08:52:07;10.00;99.90
4647;DHT22;2336;47.822;7.564;2023-04-01T08:54:54;10.00;99.90
4647;DHT22;2336;47.822;7.564;2023-04-01T08:57:35;10.10;99.90
4647;DHT22;2336;47.822;7.564;2023-04-01T09:00:15;10.10;99.90
4647;DHT22;2336;47.822;7.564;2023-04-01T09:03:15;10.10;99.90
4647;DHT22;2336;47.822;7.564;2023-04-01T09:06:12;10.10;99.90
4647;DHT22;2336;47.822;7.564;2023-04-01T09:08:56;10.10;99.90
4647;DHT22;2336;47.822;7.564;2023-04-01T09:11:38;10.10;99.90
4647;DHT22;2336;47.822;7.564;2023-04-01T09:14:29;10.20;99.90
4647;DHT22;2336;47.822;7.564;2023-04-01T09:17:41;10.20;99.90
4647;DHT22;2336;47.822;7.564;2023-04-01T09:20:41;10.20;99.90
4647;DHT22;2336;47.822;7.564;2023-04-01T09:26:18;10.30;99.90
4647;DHT22;2336;47.822;7.564;2023-04-01T09:28:55;10.30;99.90
4647;DHT22;2336;47.822;7.564;2023-04-01T09:31:41;10.40;99.90
4647;DHT22;2336;47.822;7.564;2023-04-01T09:34:30;10.40;99.90
4647;DHT22;2336;47.822;7.564;2023-04-01T09:37:19;10.40;99.90
4647;DHT22;2336;47.822;7.564;2023-04-01T09:40:01;10.40;99.90
4647;DHT22;2336;47.822;7.564;2023-04-01T09:42:56;10.40;99.90
4647;DHT22;2336;47.822;7.564;2023-04-01T09:48:26;10.50;99.90
4647;DHT22;2336;47.822;7.564;2023-04-01T09:51:06;10.50;99.90
4647;DHT22;2336;47.822;7.564;2023-04-01T09:53:48;10.60;99.90
4647;DHT22;2336;47.822;7.564;2023-04-01T09:59:32;10.50;99.90
4647;DHT22;2336;47.822;7.564;2023-04-01T10:08:41;10.50;99.90
4647;DHT22;2336;47.822;7.564;2023-04-01T10:14:37;10.50;99.90
4647;DHT22;2336;47.822;7.564;2023-04-01T10:20:37;10.40;99.90
4647;DHT22;2336;47.822;7.564;2023-04-01T10:23:31;10.40;99.90
4647;DHT22;2336;47.822;7.564;2023-04-01T10:26:21;10.50;99.90
4647;DHT22;2336;47.822;7.564;2023-04-01T10:29:11;10.40;99.90
4647;DHT22;2336;47.822;7.564;2023-04-01T10:35:14;10.30;99.90
4647;DHT22;2336;47.822;7.564;2023-04-01T10:38:07;10.30;99.90
4647;DHT22;2336;47.822;7.564;2023-04-01T10:41:06;10.30;99.90
4647;DHT22;2336;47.822;7.564;2023-04-01T10:44:03;10.30;99.90
4647;DHT22;2336;47.822;7.564;2023-04-01T10:46:54;10.30;99.90
4647;DHT22;2336;47.822;7.564;2023-04-01T10:49:43;10.30;99.90
4647;DHT22;2336;47.822;7.564;2023-04-01T10:55:52;10.30;99.90
4647;DHT22;2336;47.822;7.564;2023-04-01T10:58:39;10.30;99.90
4647;DHT22;2336;47.822;7.564;2023-04-01T11:01:35;10.20;99.90
4647;DHT22;2336;47.822;7.564;2023-04-01T11:04:51;10.30;99.90
4647;DHT22;2336;47.822;7.564;2023-04-01T11:07:45;10.30;99.90
4647;DHT22;2336;47.822;7.564;2023-04-01T11:10:46;10.20;99.90
4647;DHT22;2336;47.822;7.564;2023-04-01T11:19:38;10.30;99.90
4647;DHT22;2336;47.822;7.564;2023-04-01T11:22:32;10.30;99.90
4647;DHT22;2336;47.822;7.564;2023-04-01T11:25:37;10.50;99.90
4647;DHT22;2336;47.822;7.564;2023-04-01T11:28:26;10.50;99.90
4647;DHT22;2336;47.822;7.564;2023-04-01T11:31:22;10.60;99.90
4647;DHT22;2336;47.822;7.564;2023-04-01T11:33:55;10.70;99.90
4647;DHT22;2336;47.822;7.564;2023-04-01T11:36:36;10.70;99.90
4647;DHT22;2336;47.822;7.564;2023-04-01T11:39:13;10.80;99.90
4647;DHT22;2336;47.822;7.564;2023-04-01T11:41:50;10.90;99.90
4647;DHT22;2336;47.822;7.564;2023-04-01T11:44:20;10.70;99.90
4647;DHT22;2336;47.822;7.564;2023-04-01T11:50:10;10.80;99.90
4647;DHT22;2336;47.822;7.564;2023-04-01T11:53:05;10.80;99.90
4647;DHT22;2336;47.822;7.564;2023-04-01T11:55:46;10.80;99.90
4647;DHT22;2336;47.822;7.564;2023-04-01T11:58:23;10.90;99.90
4647;DHT22;2336;47.822;7.564;2023-04-01T12:04:05;10.90;99.90
4647;DHT22;2336;47.822;7.564;2023-04-01T12:06:43;10.90;99.90
4647;DHT22;2336;47.822;7.564;2023-04-01T12:09:21;11.00;99.90
4647;DHT22;2336;47.822;7.564;2023-04-01T12:12:00;11.00;99.90
4647;DHT22;2336;47.822;7.564;2023-04-01T12:14:37;11.00;99.90
4647;DHT22;2336;47.822;7.564;2023-04-01T12:17:14;11.10;99.90
4647;DHT22;2336;47.822;7.564;2023-04-01T12:19:50;11.10;99.90
4647;DHT22;2336;47.822;7.564;2023-04-01T12:22:35;11.20;99.90
4647;DHT22;2336;47.822;7.564;2023-04-01T12:25:26;11.10;99.90
4647;DHT22;2336;47.822;7.564;2023-04-01T12:28:06;11.00;99.90
4647;DHT22;2336;47.822;7.564;2023-04-01T12:30:42;11.00;99.90
4647;DHT22;2336;47.822;7.564;2023-04-01T12:33:29;10.90;99.90
4647;DHT22;2336;47.822;7.564;2023-04-01T12:54:02;11.30;99.90
4647;DHT22;2336;47.822;7.564;2023-04-01T12:56:42;11.40;99.90
4647;DHT22;2336;47.822;7.564;2023-04-01T12:59:42;11.30;99.90
4647;DHT22;2336;47.822;7.564;2023-04-01T13:02:26;11.40;99.90
4647;DHT22;2336;47.822;7.564;2023-04-01T13:05:24;11.50;99.90
4647;DHT22;2336;47.822;7.564;2023-04-01T13:08:18;11.60;99.90
4647;DHT22;2336;47.822;7.564;2023-04-01T13:11:17;11.60;99.90
4647;DHT22;2336;47.822;7.564;2023-04-01T13:16:58;11.80;99.90
4647;DHT22;2336;47.822;7.564;2023-04-01T13:19:35;11.80;99.90
4647;DHT22;2336;47.822;7.564;2023-04-01T13:22:07;11.90;99.90
4647;DHT22;2336;47.822;7.564;2023-04-01T13:24:43;11.90;99.90
4647;DHT22;2336;47.822;7.564;2023-04-01T13:27:18;12.00;99.90
4647;DHT22;2336;47.822;7.564;2023-04-01T13:29:59;12.20;99.90
4647;DHT22;2336;47.822;7.564;2023-04-01T13:32:34;12.30;99.90
4647;DHT22;2336;47.822;7.564;2023-04-01T13:35:16;12.50;99.90
4647;DHT22;2336;47.822;7.564;2023-04-01T13:38:08;12.60;99.90
4647;DHT22;2336;47.822;7.564;2023-04-01T13:40:48;12.70;99.90
4647;DHT22;2336;47.822;7.564;2023-04-01T13:43:21;12.80;99.90
4647;DHT22;2336;47.822;7.564;2023-04-01T13:46:05;12.90;99.90
4647;DHT22;2336;47.822;7.564;2023-04-01T13:48:47;12.90;99.90
4647;DHT22;2336;47.822;7.564;2023-04-01T13:51:33;13.00;99.90
4647;DHT22;2336;47.822;7.564;2023-04-01T13:54:28;13.10;99.90
4647;DHT22;2336;47.822;7.564;2023-04-01T13:57:09;13.00;99.90
4647;DHT22;2336;47.822;7.564;2023-04-01T14:00:00;12.90;99.90
4647;DHT22;2336;47.822;7.564;2023-04-01T14:02:45;12.80;99.90
4647;DHT22;2336;47.822;7.564;2023-04-01T14:05:28;12.80;99.90
4647;DHT22;2336;47.822;7.564;2023-04-01T14:08:00;12.70;99.90
4647;DHT22;2336;47.822;7.564;2023-04-01T14:10:36;12.30;99.90
4647;DHT22;2336;47.822;7.564;2023-04-01T14:13:12;12.00;99.90
4647;DHT22;2336;47.822;7.564;2023-04-01T14:15:58;11.60;99.90
4647;DHT22;2336;47.822;7.564;2023-04-01T14:18:45;11.30;99.90
4647;DHT22;2336;47.822;7.564;2023-04-01T14:21:22;11.00;99.90
4647;DHT22;2336;47.822;7.564;2023-04-01T14:24:07;10.80;99.90
4647;DHT22;2336;47.822;7.564;2023-04-01T14:29:46;10.60;99.90
4647;DHT22;2336;47.822;7.564;2023-04-01T14:32:27;10.50;99.90
4647;DHT22;2336;47.822;7.564;2023-04-01T14:35:14;10.50;99.90
4647;DHT22;2336;47.822;7.564;2023-04-01T14:37:58;10.40;99.90
4647;DHT22;2336;47.822;7.564;2023-04-01T14:40:37;10.30;99.90
4647;DHT22;2336;47.822;7.564;2023-04-01T14:43:46;10.30;99.90
4647;DHT22;2336;47.822;7.564;2023-04-01T14:46:39;10.40;99.90
4647;DHT22;2336;47.822;7.564;2023-04-01T14:49:19;10.50;99.90
4647;DHT22;2336;47.822;7.564;2023-04-01T14:51:48;10.60;99.90
4647;DHT22;2336;47.822;7.564;2023-04-01T14:54:18;10.60;99.90
4647;DHT22;2336;47.822;7.564;2023-04-01T14:56:49;10.70;99.90
4647;DHT22;2336;47.822;7.564;2023-04-01T14:59:27;10.80;99.90
4647;DHT22;2336;47.822;7.564;2023-04-01T15:01:58;10.90;99.90
4647;DHT22;2336;47.822;7.564;2023-04-01T15:04:41;11.00;99.90
4647;DHT22;2336;47.822;7.564;2023-04-01T15:07:28;11.00;99.90
4647;DHT22;2336;47.822;7.564;2023-04-01T15:10:07;11.20;99.90
4647;DHT22;2336;47.822;7.564;2023-04-01T15:12:52;11.20;99.90
4647;DHT22;2336;47.822;7.564;2023-04-01T15:15:32;11.40;99.90
4647;DHT22;2336;47.822;7.564;2023-04-01T15:18:08;11.60;99.90
4647;DHT22;2336;47.822;7.564;2023-04-01T15:20:55;11.70;99.90
4647;DHT22;2336;47.822;7.564;2023-04-01T15:23:34;11.90;99.90
4647;DHT22;2336;47.822;7.564;2023-04-01T15:26:25;12.00;99.90
4647;DHT22;2336;47.822;7.564;2023-04-01T15:29:06;12.10;99.90
4647;DHT22;2336;47.822;7.564;2023-04-01T15:31:42;12.10;99.90
4647;DHT22;2336;47.822;7.564;2023-04-01T15:34:24;12.20;99.90
4647;DHT22;2336;47.822;7.564;2023-04-01T15:36:58;12.20;99.90
4647;DHT22;2336;47.822;7.564;2023-04-01T15:39:38;12.20;99.90
4647;DHT22;2336;47.822;7.564;2023-04-01T15:42:23;12.20;99.90
4647;DHT22;2336;47.822;7.564;2023-04-01T15:45:03;12.40;99.90
4647;DHT22;2336;47.822;7.564;2023-04-01T15:47:39;12.60;99.90
4647;DHT22;2336;47.822;7.564;2023-04-01T15:50:28;12.70;99.90
4647;DHT22;2336;47.822;7.564;2023-04-01T15:53:14;12.60;99.90
4647;DHT22;2336;47.822;7.564;2023-04-01T15:55:49;12.60;99.90
4647;DHT22;2336;47.822;7.564;2023-04-01T15:58:28;12.50;99.90
4647;DHT22;2336;47.822;7.564;2023-04-01T16:01:07;12.30;99.90
4647;DHT22;2336;47.822;7.564;2023-04-01T16:03:42;12.30;99.90
4647;DHT22;2336;47.822;7.564;2023-04-01T16:06:43;12.10;99.90
4647;DHT22;2336;47.822;7.564;2023-04-01T16:12:15;12.00;99.90
4647;DHT22;2336;47.822;7.564;2023-04-01T16:14:52;12.00;99.90
4647;DHT22;2336;47.822;7.564;2023-04-01T16:17:31;12.00;99.90
4647;DHT22;2336;47.822;7.564;2023-04-01T16:20:16;12.00;99.90
4647;DHT22;2336;47.822;7.564;2023-04-01T16:22:50;12.10;99.90
4647;DHT22;2336;47.822;7.564;2023-04-01T16:25:31;12.10;99.90
4647;DHT22;2336;47.822;7.564;2023-04-01T16:28:12;12.10;99.90
4647;DHT22;2336;47.822;7.564;2023-04-01T16:30:44;12.10;99.90
4647;DHT22;2336;47.822;7.564;2023-04-01T16:33:15;12.20;99.90
4647;DHT22;2336;47.822;7.564;2023-04-01T16:35:52;12.20;99.90
4647;DHT22;2336;47.822;7.564;2023-04-01T16:38:24;12.30;99.90
4647;DHT22;2336;47.822;7.564;2023-04-01T16:41:03;12.20;99.90
4647;DHT22;2336;47.822;7.564;2023-04-01T16:43:39;12.10;99.90
4647;DHT22;2336;47.822;7.564;2023-04-01T16:46:33;12.00;99.90
4647;DHT22;2336;47.822;7.564;2023-04-01T16:49:13;12.00;99.90
4647;DHT22;2336;47.822;7.564;2023-04-01T16:51:46;11.90;99.90
4647;DHT22;2336;47.822;7.564;2023-04-01T16:54:18;11.80;99.90
4647;DHT22;2336;47.822;7.564;2023-04-01T16:57:01;11.70;99.90
4647;DHT22;2336;47.822;7.564;2023-04-01T16:59:35;11.60;99.90
4647;DHT22;2336;47.822;7.564;2023-04-01T17:02:08;11.40;99.90
4647;DHT22;2336;47.822;7.564;2023-04-01T17:04:40;11.20;99.90
4647;DHT22;2336;47.822;7.564;2023-04-01T17:07:22;11.10;99.90
4647;DHT22;2336;47.822;7.564;2023-04-01T17:10:03;10.90;99.90
4647;DHT22;2336;47.822;7.564;2023-04-01T17:12:40;10.70;99.90
4647;DHT22;2336;47.822;7.564;2023-04-01T17:15:18;10.60;99.90
4647;DHT22;2336;47.822;7.564;2023-04-01T17:17:54;10.60;99.90
4647;DHT22;2336;47.822;7.564;2023-04-01T17:20:39;10.50;99.90
4647;DHT22;2336;47.822;7.564;2023-04-01T17:23:12;10.50;99.90
4647;DHT22;2336;47.822;7.564;2023-04-01T17:25:52;10.50;99.90
4647;DHT22;2336;47.822;7.564;2023-04-01T17:28:30;10.40;99.90
4647;DHT22;2336;47.822;7.564;2023-04-01T17:31:05;10.40;99.90
4647;DHT22;2336;47.822;7.564;2023-04-01T17:34:04;10.30;99.90
4647;DHT22;2336;47.822;7.564;2023-04-01T17:36:45;10.40;99.90
4647;DHT22;2336;47.822;7.564;2023-04-01T17:39:33;10.40;99.90
4647;DHT22;2336;47.822;7.564;2023-04-01T17:42:06;10.40;99.90
4647;DHT22;2336;47.822;7.564;2023-04-01T17:44:49;10.30;99.90
4647;DHT22;2336;47.822;7.564;2023-04-01T17:47:39;10.30;99.90
4647;DHT22;2336;47.822;7.564;2023-04-01T17:50:18;10.20;99.90
4647;DHT22;2336;47.822;7.564;2023-04-01T17:52:52;10.20;99.90
4647;DHT22;2336;47.822;7.564;2023-04-01T17:55:41;10.20;99.90
4647;DHT22;2336;47.822;7.564;2023-04-01T17:58:17;10.20;99.90
4647;DHT22;2336;47.822;7.564;2023-04-01T18:03:54;10.20;99.90
4647;DHT22;2336;47.822;7.564;2023-04-01T18:06:31;10.20;99.90
4647;DHT22;2336;47.822;7.564;2023-04-01T18:09:06;10.20;99.90
4647;DHT22;2336;47.822;7.564;2023-04-01T18:11:42;10.30;99.90
4647;DHT22;2336;47.822;7.564;2023-04-01T18:14:39;10.30;99.90
4647;DHT22;2336;47.822;7.564;2023-04-01T18:17:18;10.20;99.90
4647;DHT22;2336;47.822;7.564;2023-04-01T18:19:57;10.10;99.90
4647;DHT22;2336;47.822;7.564;2023-04-01T18:22:33;10.10;99.90
4647;DHT22;2336;47.822;7.564;2023-04-01T18:25:14;10.10;99.90
4647;DHT22;2336;47.822;7.564;2023-04-01T18:27:45;10.10;99.90